createdAt,value
2023-05-15T00:00:00.930Z,57189.58
2023-05-15T00:02:32.074Z,57176.87
2023-05-15T00:05:02.387Z,57176.87
2023-05-15T00:07:33.038Z,57181.11
2023-05-15T00:10:04.169Z,57178.99
2023-05-15T00:12:35.119Z,57202.29
2023-05-15T00:15:05.852Z,57195.93
2023-05-15T00:17:36.805Z,57211.82
2023-05-15T00:20:27.827Z,57206.52
2023-05-15T00:22:58.159Z,57206.52
2023-05-15T00:25:28.505Z,57191.70
2023-05-15T00:27:58.793Z,57173.70
2023-05-15T00:30:29.258Z,57196.99
2023-05-15T00:32:59.686Z,57186.40
2023-05-15T00:35:30.055Z,57192.75
2023-05-15T00:38:00.419Z,57192.75
2023-05-15T00:40:32.517Z,57196.99
2023-05-15T00:43:04.201Z,57193.82
2023-05-15T00:45:36.192Z,57182.16
2023-05-15T00:48:09.632Z,57217.11
2023-05-15T00:50:41.351Z,57200.17
2023-05-15T00:53:11.975Z,57200.17
2023-05-15T00:55:43.773Z,57187.46
2023-05-15T00:58:15.834Z,57198.05
2023-05-15T01:00:48.337Z,57145.10
2023-05-15T01:03:18.868Z,57177.93
2023-05-15T01:05:52.224Z,57159.93
2023-05-15T01:08:28.702Z,57194.88
2023-05-15T01:10:59.423Z,57149.34
2023-05-15T01:13:29.892Z,57149.34
2023-05-15T01:16:00.469Z,57167.34
2023-05-15T01:18:30.888Z,57186.40
2023-05-15T01:21:23.445Z,57178.99
2023-05-15T01:24:06.028Z,57178.99
2023-05-15T01:26:55.775Z,57180.05
2023-05-15T01:29:50.412Z,57186.40
2023-05-15T01:32:23.682Z,57186.40
2023-05-15T01:34:59.575Z,57173.70
2023-05-15T01:37:32.464Z,57173.70
2023-05-15T01:40:06.145Z,57200.17
2023-05-15T01:42:39.751Z,57185.34
2023-05-15T01:45:12.084Z,57169.46
2023-05-15T01:47:45.274Z,57159.93
2023-05-15T01:50:17.855Z,57166.28
2023-05-15T01:52:51.172Z,57142.98
2023-05-15T01:55:24.011Z,57160.98
2023-05-15T01:57:56.852Z,57160.98
2023-05-15T02:00:27.357Z,57164.16
2023-05-15T02:03:00.296Z,57173.70
2023-05-15T02:05:31.116Z,57168.40
2023-05-15T02:08:03.512Z,57178.99
2023-05-15T02:10:36.474Z,57186.40
2023-05-15T02:15:59.194Z,57151.46
2023-05-15T02:18:29.753Z,57166.28
2023-05-15T02:21:03.141Z,57166.28
2023-05-15T02:23:36.141Z,57145.10
2023-05-15T02:26:30.444Z,57163.10
2023-05-15T02:29:12.998Z,57163.10
2023-05-15T02:32:20.011Z,57167.34
2023-05-15T02:35:28.823Z,57154.63
2023-05-15T02:40:56.816Z,57171.58
2023-05-15T02:43:28.826Z,57191.70
2023-05-15T02:46:00.623Z,57170.52
2023-05-15T02:48:31.325Z,57170.52
2023-05-15T02:51:03.320Z,57172.63
2023-05-15T02:53:34.325Z,57172.63
2023-05-15T02:56:04.895Z,57185.34
2023-05-15T02:58:56.348Z,57160.98
2023-05-15T03:01:28.826Z,57195.93
2023-05-15T03:03:59.063Z,57195.93
2023-05-15T03:06:29.445Z,57187.46
2023-05-15T03:09:01.236Z,57149.34
2023-05-15T03:11:33.502Z,57159.93
2023-05-15T03:14:03.965Z,57156.75
2023-05-15T03:16:34.621Z,57160.98
2023-05-15T03:19:05.555Z,57190.64
2023-05-15T03:21:35.960Z,57191.70
2023-05-15T03:24:07.803Z,57157.81
2023-05-15T03:26:38.224Z,57189.58
2023-05-15T03:29:08.757Z,57173.70
2023-05-15T03:31:39.189Z,57203.34
2023-05-15T03:34:14.220Z,57186.40
2023-05-15T03:36:46.642Z,57153.57
2023-05-15T03:39:17.054Z,57185.34
2023-05-15T03:41:47.814Z,57185.34
2023-05-15T03:44:18.264Z,57174.75
2023-05-15T03:46:48.789Z,57162.04
2023-05-15T03:49:19.157Z,57172.63
2023-05-15T03:51:50.913Z,57172.63
2023-05-15T03:54:27.468Z,57209.70
2023-05-15T03:56:59.374Z,57171.58
2023-05-15T03:59:29.553Z,57192.75
2023-05-15T04:02:05.118Z,57198.05
2023-05-15T04:04:33.816Z,57198.05
2023-05-15T04:07:04.385Z,57242.53
2023-05-15T04:09:35.340Z,57234.06
2023-05-15T04:12:07.323Z,57182.16
2023-05-15T04:14:40.793Z,57174.75
2023-05-15T04:17:11.167Z,57193.82
2023-05-15T04:19:46.245Z,57198.05
2023-05-15T04:22:16.227Z,57198.05
2023-05-15T04:24:53.547Z,57176.87
2023-05-15T04:27:23.851Z,57195.93
2023-05-15T04:29:56.115Z,57195.93
2023-05-15T04:32:35.265Z,57201.23
2023-05-15T04:35:11.810Z,57195.93
2023-05-15T04:37:43.876Z,57196.99
2023-05-15T04:40:17.487Z,57230.88
2023-05-15T04:42:48.638Z,57227.70
2023-05-15T04:48:00.594Z,57215.00
2023-05-15T04:50:34.324Z,57225.59
2023-05-15T04:53:09.215Z,57205.46
2023-05-15T04:55:42.358Z,57205.46
2023-05-15T05:01:06.568Z,57243.59
2023-05-15T05:03:37.184Z,57243.59
2023-05-15T05:06:07.650Z,57262.65
2023-05-15T05:09:37.427Z,57261.59
2023-05-15T05:11:54.408Z,57244.65
2023-05-15T05:14:24.847Z,57293.36
2023-05-15T05:16:55.602Z,57283.83
2023-05-15T05:19:26.002Z,57289.13
2023-05-15T05:22:09.003Z,57289.13
2023-05-15T05:24:41.131Z,57282.77
2023-05-15T05:27:22.532Z,57277.48
2023-05-15T05:29:54.037Z,57289.13
2023-05-15T05:32:24.758Z,57291.25
2023-05-15T05:34:58.423Z,57291.25
2023-05-15T05:37:29.032Z,57323.02
2023-05-15T05:40:02.336Z,57348.43
2023-05-15T05:42:34.260Z,57303.95
2023-05-15T05:45:11.181Z,57303.95
2023-05-15T05:47:41.574Z,57320.90
2023-05-15T05:50:13.144Z,57320.90
2023-05-15T05:52:46.536Z,57341.02
2023-05-15T05:55:17.204Z,57351.61
2023-05-15T05:58:14.674Z,57352.67
2023-05-15T06:00:40.446Z,57352.67
2023-05-15T06:03:12.348Z,57369.62
2023-05-15T06:05:42.983Z,57407.74
2023-05-15T06:08:15.990Z,57393.98
2023-05-15T06:10:46.647Z,57392.91
2023-05-15T06:13:19.742Z,57445.87
2023-05-15T06:18:55.340Z,57459.64
2023-05-15T06:21:37.067Z,57452.23
2023-05-15T06:24:13.791Z,57456.46
2023-05-15T06:26:44.698Z,57445.87
2023-05-15T06:29:26.832Z,57481.88
2023-05-15T06:31:59.980Z,57540.13
2023-05-15T06:34:33.491Z,57514.71
2023-05-15T06:37:18.811Z,57584.61
2023-05-15T06:39:36.526Z,57584.61
2023-05-15T06:42:10.646Z,57594.14
2023-05-15T06:44:43.403Z,57594.14
2023-05-15T06:51:04.419Z,55832.20
2023-05-15T06:52:43.683Z,57683.11
2023-05-15T06:56:23.686Z,57683.11
2023-05-15T06:57:47.119Z,57736.07
2023-05-15T07:00:19.772Z,57736.07
2023-05-15T07:02:54.295Z,57791.15
2023-05-15T07:05:34.541Z,57791.15
2023-05-15T07:08:06.621Z,57754.08
2023-05-15T07:10:38.572Z,57795.39
2023-05-15T07:13:11.950Z,57888.60
2023-05-15T07:15:43.753Z,57905.55
2023-05-15T07:18:28.797Z,57905.55
2023-05-15T07:20:58.063Z,57899.19
2023-05-15T07:23:29.935Z,57893.89
2023-05-15T07:26:04.058Z,57848.35
2023-05-15T07:28:35.873Z,57876.95
2023-05-15T07:31:09.086Z,57885.42
2023-05-15T07:33:42.195Z,57932.03
2023-05-15T07:36:12.885Z,57932.03
2023-05-15T07:38:43.136Z,57924.61
2023-05-15T07:41:18.096Z,57924.61
2023-05-15T07:43:51.199Z,57934.15
2023-05-15T07:46:32.586Z,57997.70
2023-05-15T07:49:02.690Z,57997.70
2023-05-15T07:51:35.538Z,58039.02
2023-05-15T07:54:06.109Z,58003.00
2023-05-15T07:56:37.206Z,58011.47
2023-05-15T07:59:07.664Z,57974.40
2023-05-15T08:01:48.357Z,57974.40
2023-05-15T08:04:24.054Z,58011.47
2023-05-15T08:06:58.432Z,58011.47
2023-05-15T08:09:41.564Z,58075.03
2023-05-15T08:12:29.291Z,58049.61
2023-05-15T08:14:58.682Z,58049.61
2023-05-15T08:17:30.715Z,58070.79
2023-05-15T08:20:00.890Z,58070.79
2023-05-15T08:22:40.761Z,58149.18
2023-05-15T08:25:29.001Z,58149.18
2023-05-15T08:28:14.790Z,58039.02
2023-05-15T08:30:45.183Z,58039.02
2023-05-15T08:33:15.792Z,58068.67
2023-05-15T08:35:55.211Z,58098.33
2023-05-15T08:38:28.954Z,58152.36
2023-05-15T08:41:00.321Z,58152.36
2023-05-15T08:43:49.765Z,58151.30
2023-05-15T08:46:25.962Z,58191.55
2023-05-15T08:49:01.407Z,58159.77
2023-05-15T08:51:36.070Z,58266.77
2023-05-15T08:54:18.926Z,58266.77
2023-05-15T08:56:58.582Z,58210.62
2023-05-15T08:59:40.673Z,58100.45
2023-05-15T09:02:19.397Z,58105.75
2023-05-15T09:04:50.466Z,58206.38
2023-05-15T09:07:22.744Z,58206.38
2023-05-15T09:09:56.425Z,58166.13
2023-05-15T09:12:30.876Z,58045.37
2023-05-15T09:15:12.902Z,58045.37
2023-05-15T09:17:44.141Z,57972.28
2023-05-15T09:20:51.056Z,58089.86
2023-05-15T09:23:26.488Z,58086.68
2023-05-15T09:25:59.518Z,58086.68
2023-05-15T09:28:34.722Z,58107.87
2023-05-15T09:31:06.034Z,58114.22
2023-05-15T09:33:40.056Z,58200.03
2023-05-15T09:36:20.549Z,58200.03
2023-05-15T09:38:56.461Z,58142.82
2023-05-15T09:41:28.738Z,58157.66
2023-05-15T09:44:03.455Z,58093.04
2023-05-15T09:46:46.981Z,58024.18
2023-05-15T09:49:20.451Z,57961.69
2023-05-15T09:51:52.355Z,58051.73
2023-05-15T09:54:25.773Z,58118.46
2023-05-15T09:56:56.532Z,58118.46
2023-05-15T09:59:26.976Z,58160.83
2023-05-15T10:01:58.962Z,58190.50
2023-05-15T10:04:39.366Z,57995.58
2023-05-15T10:07:09.309Z,57995.58
2023-05-15T10:09:43.905Z,57910.84
2023-05-15T10:12:15.613Z,57929.91
2023-05-15T10:14:47.999Z,57937.32
2023-05-15T10:17:20.860Z,57937.32
2023-05-15T10:19:58.375Z,58054.90
2023-05-15T10:22:25.974Z,58099.39
2023-05-15T10:25:05.450Z,58099.39
2023-05-15T10:27:37.801Z,58031.60
2023-05-15T10:30:14.313Z,58066.55
2023-05-15T10:33:06.553Z,58066.55
2023-05-15T10:35:46.170Z,58159.77
2023-05-15T10:38:16.165Z,58194.73
2023-05-15T10:41:15.850Z,58194.73
2023-05-15T10:43:34.046Z,58227.57
2023-05-15T10:47:31.814Z,58176.72
2023-05-15T10:57:16.611Z,55783.50
2023-05-15T10:59:49.142Z,58146.00
2023-05-15T11:02:29.137Z,58210.62
2023-05-15T11:05:11.668Z,58238.16
2023-05-15T11:07:42.121Z,58308.08
2023-05-15T11:10:33.798Z,58308.08
2023-05-15T11:13:04.144Z,58364.23
2023-05-15T11:16:04.545Z,58314.44
2023-05-15T11:18:39.266Z,58314.44
2023-05-15T11:21:12.408Z,58227.57
2023-05-15T11:23:53.038Z,58245.58
2023-05-15T11:26:22.286Z,58185.20
2023-05-15T11:28:54.226Z,58174.61
2023-05-15T11:31:27.590Z,58203.21
2023-05-15T11:34:00.925Z,58177.78
2023-05-15T11:36:32.668Z,58166.13
2023-05-15T11:39:08.379Z,58198.97
2023-05-15T11:41:41.652Z,58151.30
2023-05-15T11:44:12.966Z,58239.22
2023-05-15T11:46:44.384Z,58135.41
2023-05-15T11:49:20.736Z,58202.15
2023-05-15T11:51:52.297Z,58176.72
2023-05-15T11:54:26.340Z,58223.33
2023-05-15T11:56:58.749Z,58223.33
2023-05-15T11:59:29.064Z,58341.98
2023-05-15T12:02:00.532Z,58290.07
2023-05-15T12:04:37.779Z,58165.07
2023-05-15T12:07:06.618Z,58186.26
2023-05-15T12:09:38.689Z,58186.26
2023-05-15T12:12:13.840Z,58149.18
2023-05-15T12:14:46.816Z,58208.50
2023-05-15T12:17:18.424Z,58216.98
2023-05-15T12:19:50.389Z,58272.06
2023-05-15T12:22:20.768Z,58335.62
2023-05-15T12:24:51.752Z,58238.16
2023-05-15T12:27:26.729Z,58364.23
2023-05-15T12:29:57.064Z,58364.23
2023-05-15T12:32:32.230Z,58418.26
2023-05-15T12:35:05.669Z,58447.92
2023-05-15T12:37:36.738Z,58410.84
2023-05-15T12:40:08.353Z,58510.43
2023-05-15T12:42:43.122Z,58379.06
2023-05-15T12:45:23.934Z,58394.95
2023-05-15T12:47:54.455Z,58323.97
2023-05-15T12:50:29.435Z,58239.22
2023-05-15T12:53:04.325Z,58549.62
2023-05-15T12:55:37.431Z,58549.62
2023-05-15T12:58:10.182Z,58462.75
2023-05-15T13:00:43.190Z,58247.70
2023-05-15T13:03:28.637Z,58365.29
2023-05-15T13:05:55.422Z,58265.71
2023-05-15T13:08:32.847Z,58315.50
2023-05-15T13:11:03.446Z,58363.17
2023-05-15T13:13:43.320Z,58363.17
2023-05-15T13:16:27.471Z,58274.18
2023-05-15T13:18:59.317Z,58121.64
2023-05-15T13:21:30.555Z,58346.22
2023-05-15T13:24:08.923Z,58392.83
2023-05-15T13:26:38.482Z,58258.29
2023-05-15T13:29:11.273Z,58258.29
2023-05-15T13:31:41.610Z,58327.15
2023-05-15T13:34:12.137Z,58327.15
2023-05-15T13:36:42.545Z,58297.49
2023-05-15T13:39:12.979Z,58197.91
2023-05-15T13:41:43.408Z,58195.79
2023-05-15T13:44:13.908Z,58214.86
2023-05-15T13:46:50.653Z,58177.78
2023-05-15T13:49:17.753Z,58263.59
2023-05-15T13:51:51.184Z,58251.93
2023-05-15T13:54:22.935Z,58185.20
2023-05-15T13:56:55.478Z,58080.32
2023-05-15T13:59:28.656Z,58105.75
2023-05-15T14:02:00.757Z,58105.75
2023-05-15T14:04:33.050Z,58089.86
2023-05-15T14:07:33.591Z,58019.95
2023-05-15T14:09:50.963Z,57948.98
2023-05-15T14:12:21.678Z,57948.98
2023-05-15T14:14:52.133Z,57903.43
2023-05-15T14:17:23.374Z,57903.43
2023-05-15T14:19:55.795Z,57848.35
2023-05-15T14:22:33.717Z,57815.51
2023-05-15T14:25:05.091Z,57832.46
2023-05-15T14:27:44.567Z,57832.46
2023-05-15T14:30:23.217Z,57775.27
2023-05-15T14:32:55.474Z,57775.27
2023-05-15T14:35:29.403Z,57821.87
2023-05-15T14:38:00.315Z,57861.06
2023-05-15T14:40:33.660Z,57809.16
2023-05-15T14:43:07.004Z,57775.27
2023-05-15T14:45:37.275Z,57830.34
2023-05-15T14:48:18.020Z,57748.79
2023-05-15T14:50:51.328Z,57743.49
2023-05-15T14:53:23.523Z,57744.55
2023-05-15T14:55:55.645Z,57809.16
2023-05-15T14:58:30.465Z,57809.16
2023-05-15T15:01:09.255Z,57744.55
2023-05-15T15:03:44.696Z,57795.39
2023-05-15T15:06:19.769Z,57735.02
2023-05-15T15:08:53.319Z,57689.47
2023-05-15T15:11:36.185Z,57666.17
2023-05-15T15:14:11.661Z,57675.70
2023-05-15T15:16:50.344Z,57704.30
2023-05-15T15:19:23.110Z,57700.06
2023-05-15T15:21:52.995Z,57672.52
2023-05-15T15:24:27.067Z,57672.52
2023-05-15T15:26:57.441Z,57700.06
2023-05-15T15:29:37.925Z,57685.23
2023-05-15T15:32:09.866Z,57674.64
2023-05-15T15:34:54.745Z,57652.40
2023-05-15T15:37:25.472Z,57653.46
2023-05-15T15:40:03.192Z,57653.46
2023-05-15T15:42:37.943Z,57652.40
2023-05-15T15:45:10.926Z,57643.93
2023-05-15T15:47:44.002Z,57661.93
2023-05-15T15:50:22.521Z,57611.09
2023-05-15T15:52:52.593Z,57611.09
2023-05-15T15:55:24.881Z,57612.15
2023-05-15T15:58:04.444Z,57635.45
2023-05-15T16:00:35.664Z,57632.27
2023-05-15T16:03:06.201Z,57617.45
2023-05-15T16:05:45.563Z,57617.45
2023-05-15T16:08:18.553Z,57571.90
2023-05-15T16:10:49.027Z,57571.90
2023-05-15T16:13:22.510Z,57558.13
2023-05-15T16:16:00.700Z,57543.31
2023-05-15T16:18:41.658Z,57588.85
2023-05-15T16:21:12.764Z,57588.85
2023-05-15T16:23:47.930Z,57564.49
2023-05-15T16:26:18.723Z,57520.01
2023-05-15T16:28:49.097Z,57538.01
2023-05-15T16:31:30.409Z,57524.25
2023-05-15T16:33:54.446Z,57549.66
2023-05-15T16:36:27.431Z,57526.36
2023-05-15T16:39:02.432Z,57526.36
2023-05-15T16:41:39.609Z,57505.18
2023-05-15T16:44:10.040Z,57539.07
2023-05-15T16:46:45.925Z,57506.24
2023-05-15T16:49:12.979Z,57476.58
2023-05-15T16:51:43.749Z,57476.58
2023-05-15T16:54:22.205Z,57468.11
2023-05-15T16:57:04.435Z,57498.82
2023-05-15T16:59:45.711Z,57471.29
2023-05-15T17:02:22.342Z,57471.29
2023-05-15T17:08:05.053Z,57468.11
2023-05-15T17:10:31.340Z,57465.99
2023-05-15T17:13:02.396Z,57417.27
2023-05-15T17:15:33.459Z,57434.22
2023-05-15T17:18:03.957Z,57434.22
2023-05-15T17:20:34.484Z,57396.09
2023-05-15T17:23:05.069Z,57420.45
2023-05-15T17:25:36.332Z,57409.86
2023-05-15T17:28:08.498Z,57408.80
2023-05-15T17:30:42.038Z,57371.73
2023-05-15T17:33:14.008Z,57371.73
2023-05-15T17:35:44.632Z,57377.03
2023-05-15T17:38:17.630Z,57370.68
2023-05-15T17:40:57.842Z,57370.68
2023-05-15T17:43:41.383Z,57372.79
2023-05-15T17:46:04.658Z,57375.97
2023-05-15T17:48:38.721Z,57361.14
2023-05-15T17:51:16.994Z,57334.67
2023-05-15T17:53:48.141Z,57334.67
2023-05-15T17:56:21.780Z,57346.32
2023-05-15T17:58:55.384Z,57339.96
2023-05-15T18:01:26.392Z,57339.96
2023-05-15T18:03:57.048Z,57330.43
2023-05-15T18:06:29.038Z,57333.61
2023-05-15T18:09:01.160Z,57347.38
2023-05-15T18:11:38.159Z,57347.38
2023-05-15T18:14:10.148Z,57367.50
2023-05-15T18:16:47.466Z,57374.91
2023-05-15T18:19:19.639Z,57374.91
2023-05-15T18:21:51.952Z,57350.55
2023-05-15T18:24:22.507Z,57347.38
2023-05-15T18:26:53.624Z,57362.20
2023-05-15T18:29:27.446Z,57363.26
2023-05-15T18:32:11.239Z,57363.26
2023-05-15T18:34:37.988Z,57332.55
2023-05-15T18:37:08.418Z,57343.14
2023-05-15T18:39:38.813Z,57335.73
2023-05-15T18:42:15.485Z,57338.90
2023-05-15T18:45:04.154Z,57338.90
2023-05-15T18:47:35.225Z,57355.85
2023-05-15T18:50:08.974Z,57355.85
2023-05-15T18:52:39.611Z,57345.26
2023-05-15T18:55:10.707Z,57342.08
2023-05-15T18:57:44.607Z,57347.38
2023-05-15T19:00:37.104Z,57347.38
2023-05-15T19:03:14.509Z,57354.79
2023-05-15T19:05:47.672Z,57354.79
2023-05-15T19:08:22.002Z,57337.84
2023-05-15T19:10:53.091Z,57337.84
2023-05-15T19:13:23.407Z,57318.78
2023-05-15T19:15:54.179Z,57350.55
2023-05-15T19:18:24.563Z,57308.19
2023-05-15T19:20:57.780Z,57308.19
2023-05-15T19:23:35.520Z,57329.37
2023-05-15T19:26:06.002Z,57331.49
2023-05-15T19:28:36.580Z,57321.96
2023-05-15T19:31:17.155Z,57319.84
2023-05-15T19:33:42.747Z,57319.84
2023-05-15T19:36:13.359Z,57306.07
2023-05-15T19:38:47.952Z,57305.01
2023-05-15T19:41:20.620Z,57305.01
2023-05-15T19:43:52.592Z,57292.30
2023-05-15T19:46:23.023Z,57285.95
2023-05-15T19:48:53.299Z,57284.89
2023-05-15T19:51:26.215Z,57308.19
2023-05-15T19:53:58.046Z,57308.19
2023-05-15T19:56:28.845Z,57295.48
2023-05-15T19:59:00.265Z,57293.36
2023-05-15T20:01:30.968Z,57289.13
2023-05-15T20:04:01.379Z,57289.13
2023-05-15T20:06:32.327Z,57300.78
2023-05-15T20:09:02.763Z,57285.95
2023-05-15T20:11:36.211Z,57285.95
2023-05-15T20:14:06.572Z,57266.89
2023-05-15T20:16:37.777Z,57271.13
2023-05-15T20:19:08.509Z,57276.42
2023-05-15T20:21:41.113Z,57282.77
2023-05-15T20:24:11.423Z,57273.24
2023-05-15T20:26:43.418Z,57294.42
2023-05-15T20:29:13.747Z,57271.13
2023-05-15T20:31:47.541Z,57276.42
2023-05-15T20:34:22.901Z,57238.29
2023-05-15T20:36:54.995Z,57238.29
2023-05-15T20:39:25.711Z,57240.41
2023-05-15T20:41:56.248Z,57267.95
2023-05-15T20:44:26.689Z,57267.95
2023-05-15T20:47:02.933Z,57242.53
2023-05-15T20:49:33.653Z,57253.12
2023-05-15T20:52:05.656Z,57273.24
2023-05-15T20:57:55.742Z,57273.24
2023-05-15T21:03:35.441Z,57267.95
2023-05-15T21:06:05.808Z,57267.95
2023-05-15T21:08:40.414Z,57251.00
2023-05-15T21:11:10.876Z,57254.18
2023-05-15T21:13:44.196Z,57254.18
2023-05-15T21:16:15.054Z,57270.06
2023-05-15T21:18:45.457Z,57270.06
2023-05-15T21:21:15.984Z,57247.82
2023-05-15T21:23:46.858Z,57234.06
2023-05-15T21:26:17.239Z,57228.76
2023-05-15T21:28:47.710Z,57241.47
2023-05-15T21:31:17.977Z,57271.13
2023-05-15T21:33:51.239Z,57271.13
2023-05-15T21:36:21.661Z,57248.88
2023-05-15T21:38:52.117Z,57276.42
2023-05-15T21:41:22.575Z,57246.77
2023-05-15T21:43:53.062Z,57244.65
2023-05-15T21:46:24.077Z,57244.65
2023-05-15T21:48:54.721Z,57215.00
2023-05-15T21:51:24.993Z,57215.00
2023-05-15T21:53:55.394Z,57244.65
2023-05-15T21:56:25.925Z,57215.00
2023-05-15T21:58:56.834Z,57225.59
2023-05-15T22:01:27.344Z,57227.70
2023-05-15T22:03:59.800Z,57226.64
2023-05-15T22:06:30.387Z,57227.70
2023-05-15T22:09:00.729Z,57256.30
2023-05-15T22:11:31.102Z,57256.30
2023-05-15T22:14:01.392Z,57215.00
2023-05-15T22:16:32.150Z,57215.00
2023-05-15T22:19:02.444Z,57220.29
2023-05-15T22:21:33.380Z,57243.59
2023-05-15T22:24:04.172Z,57212.87
2023-05-15T22:26:34.813Z,57251.00
2023-05-15T22:29:07.860Z,57249.95
2023-05-15T22:31:38.863Z,57249.95
2023-05-15T22:34:09.245Z,57248.88
2023-05-15T22:36:39.643Z,57248.88
2023-05-15T22:39:10.148Z,57210.76
2023-05-15T22:41:40.860Z,57210.76
2023-05-15T22:44:11.057Z,57202.29
2023-05-15T22:46:41.614Z,57225.59
2023-05-15T22:49:11.936Z,57225.59
2023-05-15T22:51:42.231Z,57215.00
2023-05-15T22:54:12.597Z,57234.06
2023-05-15T22:56:46.123Z,57245.71
2023-05-15T22:59:16.485Z,57211.82
2023-05-15T23:01:47.303Z,57212.87
2023-05-15T23:04:23.612Z,57212.87
2023-05-15T23:06:56.151Z,57223.46
2023-05-15T23:09:28.962Z,57223.46
2023-05-15T23:11:59.250Z,57215.00
2023-05-15T23:14:31.109Z,57223.46
2023-05-15T23:17:04.457Z,57223.46
2023-05-15T23:19:34.822Z,57213.94
2023-05-15T23:22:05.327Z,57213.94
2023-05-15T23:24:41.740Z,57199.11
2023-05-15T23:27:14.298Z,57210.76
2023-05-15T23:29:46.281Z,57198.05
2023-05-15T23:32:16.770Z,57198.05
2023-05-15T23:34:47.020Z,57182.16
2023-05-15T23:37:17.288Z,57182.16
2023-05-15T23:39:51.188Z,57205.46
2023-05-15T23:42:23.387Z,57182.16
2023-05-15T23:44:54.871Z,57182.16
2023-05-15T23:47:26.821Z,57217.11
2023-05-15T23:49:57.219Z,57217.11
2023-05-15T23:52:27.708Z,57205.46
2023-05-15T23:55:01.167Z,57163.10
2023-05-15T23:57:37.285Z,57189.58
